Time;durP1;ratioP1;P1;durP2;ratioP2;P2;SDS_P1;SDS_P2;PMS_P1;PMS_P2;Temp;Humidity;BMP_temperature;BMP_pressure;BME280_temperature;BME280_humidity;BME280_pressure;Samples;Min_cycle;Max_cycle;Signal;HPM_P1;HPM_P2
2021/09/01 00:00:08;;;;;;;30.42;9.43;;;15.10;99.90;;;;;;2087472;28;20029;-72
2021/09/01 00:01:09;;;;;;;26.83;8.80;;;15.10;99.90;;;;;;2079096;28;20022;-70
2021/09/01 00:02:09;;;;;;;35.95;11.07;;;15.10;99.90;;;;;;2087334;28;20131;-72
2021/09/01 00:03:10;;;;;;;35.60;10.13;;;15.10;99.90;;;;;;2085789;28;20013;-72
2021/09/01 00:04:11;;;;;;;30.73;9.10;;;15.10;99.90;;;;;;2087496;28;20024;-71
2021/09/01 00:05:11;;;;;;;35.33;9.50;;;15.10;99.90;;;;;;2087152;28;20009;-71
2021/09/01 00:06:12;;;;;;;33.08;8.80;;;15.10;99.90;;;;;;2084218;28;20105;-71
2021/09/01 00:07:13;;;;;;;39.70;9.70;;;15.10;99.90;;;;;;2086177;28;20091;-73
2021/09/01 00:08:13;;;;;;;28.52;9.32;;;15.10;99.90;;;;;;2087923;28;20025;-70
2021/09/01 00:09:14;;;;;;;28.70;9.25;;;15.10;99.90;;;;;;2094915;28;20035;-72
2021/09/01 00:10:15;;;;;;;39.80;10.68;;;15.10;99.90;;;;;;2086972;28;20028;-71
2021/09/01 00:11:17;;;;;;;32.63;9.60;;;15.10;99.90;;;;;;2087109;28;20485;-71
2021/09/01 00:12:18;;;;;;;33.63;10.77;;;15.10;99.90;;;;;;2088018;28;20482;-71
2021/09/01 00:13:19;;;;;;;29.35;9.40;;;15.10;99.90;;;;;;2083477;28;20017;-72
2021/09/01 00:14:20;;;;;;;37.65;10.18;;;15.00;99.90;;;;;;2073937;28;20033;-73
2021/09/01 00:15:21;;;;;;;41.05;11.05;;;15.10;99.90;;;;;;2085121;28;20025;-74
2021/09/01 00:16:27;;;;;;;30.35;9.60;;;15.10;99.90;;;;;;2084052;28;20107;-70
2021/09/01 00:17:28;;;;;;;33.30;10.68;;;15.10;99.90;;;;;;2093397;28;20023;-72
2021/09/01 00:18:29;;;;;;;34.65;10.50;;;15.00;99.90;;;;;;2083186;28;20021;-71
2021/09/01 00:19:29;;;;;;;34.25;10.60;;;15.00;99.90;;;;;;2081646;28;20491;-71
2021/09/01 00:20:31;;;;;;;27.13;9.98;;;14.90;99.90;;;;;;2078499;28;20438;-72
2021/09/01 00:21:33;;;;;;;28.98;9.57;;;15.00;99.90;;;;;;2098338;28;20137;-72
2021/09/01 00:22:37;;;;;;;31.38;11.00;;;14.90;99.90;;;;;;2090925;28;20545;-73
2021/09/01 00:23:38;;;;;;;30.90;11.15;;;14.90;99.90;;;;;;2075057;28;20018;-74
2021/09/01 00:24:39;;;;;;;32.10;10.70;;;14.90;99.90;;;;;;2082318;28;20048;-73
2021/09/01 00:25:39;;;;;;;38.05;11.07;;;15.00;99.90;;;;;;2082099;28;20025;-71
2021/09/01 00:26:40;;;;;;;31.85;11.23;;;15.00;99.90;;;;;;2082002;28;20032;-72
2021/09/01 00:27:40;;;;;;;40.75;11.15;;;15.00;99.90;;;;;;2082294;28;20104;-71
2021/09/01 00:28:41;;;;;;;33.42;11.07;;;15.10;99.90;;;;;;2097331;28;20025;-71
2021/09/01 00:29:42;;;;;;;36.08;11.77;;;15.10;99.90;;;;;;2090187;28;20100;-72
2021/09/01 00:30:42;;;;;;;33.67;10.98;;;15.10;99.90;;;;;;2077110;28;20442;-70
2021/09/01 00:31:43;;;;;;;39.67;11.85;;;15.10;99.90;;;;;;2081954;28;20087;-71
2021/09/01 00:32:44;;;;;;;31.08;11.20;;;15.10;99.90;;;;;;2081024;28;20853;-71
2021/09/01 00:33:45;;;;;;;28.23;10.75;;;15.10;99.90;;;;;;2079906;28;20033;-74
2021/09/01 00:34:46;;;;;;;32.20;11.55;;;15.10;99.90;;;;;;2082380;28;20026;-73
2021/09/01 00:35:47;;;;;;;30.70;11.25;;;15.10;99.90;;;;;;2078937;28;20032;-72
2021/09/01 00:36:47;;;;;;;29.05;10.75;;;15.10;99.90;;;;;;2082429;28;20026;-71
2021/09/01 00:37:48;;;;;;;29.83;12.25;;;15.10;99.90;;;;;;2074878;28;20037;-71
2021/09/01 00:38:49;;;;;;;27.33;10.55;;;15.10;99.90;;;;;;2080423;28;20705;-71
2021/09/01 00:39:49;;;;;;;27.90;10.15;;;15.10;99.90;;;;;;2082266;28;20025;-72
2021/09/01 00:40:54;;;;;;;32.55;10.75;;;15.10;99.90;;;;;;2077236;28;20021;-72
2021/09/01 00:42:02;;;;;;;34.78;11.32;;;15.10;99.90;;;;;;2081291;28;20033;-74
2021/09/01 00:43:02;;;;;;;29.98;11.35;;;15.00;99.90;;;;;;2075417;28;20440;-73
2021/09/01 00:44:25;;;;;;;32.03;11.15;;;15.00;99.90;;;;;;2081833;28;20022;-72
2021/09/01 00:45:26;;;;;;;29.02;11.27;;;15.00;99.90;;;;;;2076769;28;20143;-72
2021/09/01 00:46:27;;;;;;;31.50;10.73;;;15.00;99.90;;;;;;2074236;28;20030;-73
2021/09/01 00:47:27;;;;;;;24.52;10.52;;;15.00;99.90;;;;;;2073968;28;20018;-72
2021/09/01 00:48:28;;;;;;;33.30;11.18;;;15.00;99.90;;;;;;2074179;28;20062;-75
2021/09/01 00:49:30;;;;;;;35.95;11.82;;;15.00;99.90;;;;;;2074209;28;20097;-70
2021/09/01 00:50:31;;;;;;;32.17;10.50;;;15.00;99.90;;;;;;2073528;28;20029;-72
2021/09/01 00:51:32;;;;;;;28.50;10.80;;;14.90;99.90;;;;;;2074607;28;20056;-70
2021/09/01 00:52:34;;;;;;;32.00;11.00;;;14.90;99.90;;;;;;2077041;28;20017;-72
2021/09/01 00:53:44;;;;;;;29.42;11.25;;;14.90;99.90;;;;;;2085670;28;20025;-72
2021/09/01 00:54:46;;;;;;;33.17;10.88;;;14.90;99.90;;;;;;2081911;28;20049;-72
2021/09/01 00:55:50;;;;;;;33.70;11.25;;;14.90;99.90;;;;;;2073318;28;20425;-71
2021/09/01 00:56:53;;;;;;;28.98;10.57;;;14.90;99.90;;;;;;2081377;28;20060;-71
2021/09/01 00:57:54;;;;;;;35.00;11.57;;;14.90;99.90;;;;;;2078749;28;20116;-72
2021/09/01 00:58:55;;;;;;;28.90;11.68;;;14.90;99.90;;;;;;2084472;28;20021;-73
2021/09/01 00:59:56;;;;;;;28.33;10.77;;;14.80;99.90;;;;;;2088914;28;20541;-72
2021/09/01 01:02:07;;;;;;;40.00;11.45;;;14.90;99.90;;;;;;2073992;28;20064;-70
2021/09/01 01:03:07;;;;;;;35.03;11.57;;;14.90;99.90;;;;;;2079809;28;20025;-75
2021/09/01 01:04:08;;;;;;;40.85;11.40;;;14.90;99.90;;;;;;2081786;28;20057;-72
2021/09/01 01:05:10;;;;;;;30.02;11.57;;;14.90;99.90;;;;;;2074270;28;20028;-73
2021/09/01 01:06:10;;;;;;;29.60;10.30;;;14.90;99.90;;;;;;2073075;28;20108;-73
2021/09/01 01:07:11;;;;;;;34.65;11.23;;;14.80;99.90;;;;;;2073898;28;20033;-73
2021/09/01 01:08:12;;;;;;;31.75;10.77;;;14.90;99.90;;;;;;2075100;28;20082;-73
2021/09/01 01:09:13;;;;;;;35.38;11.73;;;14.90;99.90;;;;;;2073713;28;20697;-72
2021/09/01 01:10:14;;;;;;;27.08;10.23;;;14.80;99.90;;;;;;2085101;28;20052;-72
2021/09/01 01:11:15;;;;;;;27.63;11.00;;;14.80;99.90;;;;;;2087063;28;20021;-75
2021/09/01 01:12:19;;;;;;;32.50;10.63;;;14.80;99.90;;;;;;2082639;28;20489;-73
2021/09/01 01:13:20;;;;;;;31.10;10.60;;;14.90;99.90;;;;;;2082043;28;20030;-71
2021/09/01 01:14:21;;;;;;;29.70;11.45;;;14.90;99.90;;;;;;2081318;28;20033;-73
2021/09/01 01:15:21;;;;;;;29.58;9.68;;;14.90;99.90;;;;;;2081357;28;20072;-72
2021/09/01 01:16:24;;;;;;;32.92;10.05;;;14.90;99.90;;;;;;2079952;28;20097;-72
2021/09/01 01:17:24;;;;;;;;;;;14.90;99.90;;;;;;2074550;28;20037;-74
2021/09/01 01:18:25;;;;;;;36.33;10.00;;;14.90;99.90;;;;;;2074281;28;19905;-72
2021/09/01 01:19:26;;;;;;;31.75;11.00;;;14.90;99.90;;;;;;2073905;28;20030;-73
2021/09/01 01:20:26;;;;;;;39.90;10.55;;;14.90;99.90;;;;;;2081513;28;20647;-72
2021/09/01 01:21:28;;;;;;;30.15;10.57;;;14.80;99.90;;;;;;2086792;28;20563;-71
2021/09/01 01:22:29;;;;;;;31.75;10.85;;;14.90;99.90;;;;;;2077403;28;20053;-71
2021/09/01 01:23:30;;;;;;;35.45;11.55;;;14.80;99.90;;;;;;2073593;28;20481;-73
2021/09/01 01:24:54;;;;;;;29.67;9.57;;;14.80;99.90;;;;;;2081647;28;20100;-72
2021/09/01 01:25:55;;;;;;;37.88;10.63;;;14.80;99.90;;;;;;2081193;28;20029;-73
2021/09/01 01:26:56;;;;;;;30.55;10.05;;;14.80;99.90;;;;;;2076719;28;20026;-73
2021/09/01 01:27:56;;;;;;;27.17;9.45;;;14.80;99.90;;;;;;2082143;28;20026;-71
2021/09/01 01:29:00;;;;;;;28.23;10.02;;;14.80;99.90;;;;;;2077431;28;20025;-73
2021/09/01 01:30:17;;;;;;;23.38;8.98;;;14.80;99.90;;;;;;2065687;28;20062;-72
2021/09/01 01:31:18;;;;;;;31.42;9.50;;;14.80;99.90;;;;;;2074421;28;20022;-72
2021/09/01 01:32:21;;;;;;;33.80;10.02;;;14.80;99.90;;;;;;2083462;28;20025;-73
2021/09/01 01:33:22;;;;;;;34.47;9.65;;;14.70;99.90;;;;;;2088988;28;20028;-73
2021/09/01 01:34:23;;;;;;;34.40;9.63;;;14.70;99.90;;;;;;2081222;28;20028;-72
2021/09/01 01:35:27;;;;;;;30.55;8.80;;;14.70;99.90;;;;;;2079007;28;20026;-73
2021/09/01 01:36:28;;;;;;;26.52;8.98;;;14.70;99.90;;;;;;2073690;28;20026;-73
2021/09/01 01:37:28;;;;;;;32.72;9.90;;;14.70;99.90;;;;;;2083464;28;20600;-73
2021/09/01 01:38:31;;;;;;;28.15;9.35;;;14.60;99.90;;;;;;2077215;28;20033;-72
2021/09/01 01:39:32;;;;;;;29.27;9.63;;;14.60;99.90;;;;;;2080769;28;20104;-73
2021/09/01 01:40:34;;;;;;;26.48;9.25;;;14.60;99.90;;;;;;2080986;28;20590;-73
2021/09/01 01:41:35;;;;;;;30.00;9.63;;;14.60;99.90;;;;;;2081602;28;20576;-72
2021/09/01 01:42:44;;;;;;;30.75;9.75;;;14.70;99.90;;;;;;2081656;28;20140;-73
2021/09/01 01:43:46;;;;;;;32.90;9.68;;;14.60;99.90;;;;;;2084173;28;20025;-72
2021/09/01 01:44:47;;;;;;;27.77;8.98;;;14.60;99.90;;;;;;2069717;28;20022;-73
2021/09/01 01:45:47;;;;;;;28.45;9.40;;;14.70;99.90;;;;;;2072125;28;20018;-73
2021/09/01 01:46:48;;;;;;;33.80;9.50;;;14.70;99.90;;;;;;2072833;28;20486;-72
2021/09/01 01:47:49;;;;;;;30.05;9.43;;;14.70;99.90;;;;;;2078535;28;20036;-72
2021/09/01 01:48:49;;;;;;;33.92;9.73;;;14.70;99.90;;;;;;2079988;28;20551;-73
2021/09/01 01:49:50;;;;;;;34.10;9.63;;;14.70;99.90;;;;;;2073022;28;20129;-72
2021/09/01 01:50:51;;;;;;;39.95;10.50;;;14.70;99.90;;;;;;2077549;28;20017;-73
2021/09/01 01:51:51;;;;;;;34.10;9.85;;;14.70;99.90;;;;;;2076854;28;20073;-73
2021/09/01 01:52:52;;;;;;;25.42;9.10;;;14.60;99.90;;;;;;2076944;28;20106;-72
2021/09/01 01:53:53;;;;;;;31.10;10.00;;;14.70;99.90;;;;;;2089466;28;20436;-72
2021/09/01 01:54:54;;;;;;;29.23;9.63;;;14.70;99.90;;;;;;2073078;28;20029;-75
2021/09/01 01:55:54;;;;;;;29.40;8.65;;;14.60;99.90;;;;;;2075521;28;21380;-73
2021/09/01 01:56:55;;;;;;;35.05;9.73;;;14.60;99.90;;;;;;2081789;28;20021;-71
2021/09/01 01:57:56;;;;;;;28.35;9.68;;;14.60;99.90;;;;;;2078010;28;20026;-71
2021/09/01 01:58:56;;;;;;;25.00;8.75;;;14.60;99.90;;;;;;2090005;28;20059;-72
2021/09/01 01:59:57;;;;;;;33.03;9.20;;;14.60;99.90;;;;;;2082128;28;20033;-75
2021/09/01 02:00:58;;;;;;;29.20;9.43;;;14.60;99.90;;;;;;2078417;28;20029;-73
2021/09/01 02:01:58;;;;;;;26.75;9.57;;;14.60;99.90;;;;;;2072934;28;20092;-73
2021/09/01 02:02:59;;;;;;;33.13;9.60;;;14.60;99.90;;;;;;2073610;28;20018;-72
2021/09/01 02:04:00;;;;;;;26.08;9.43;;;14.50;99.90;;;;;;2073027;28;20022;-73
2021/09/01 02:05:02;;;;;;;28.00;8.88;;;14.50;99.90;;;;;;2080080;28;20018;-73
2021/09/01 02:06:02;;;;;;;24.83;8.75;;;14.50;99.90;;;;;;2073376;28;20103;-73
2021/09/01 02:07:03;;;;;;;24.77;8.60;;;14.50;99.90;;;;;;2075606;28;20072;-73
2021/09/01 02:08:04;;;;;;;24.48;9.07;;;14.50;99.90;;;;;;2080751;28;20025;-71
2021/09/01 02:09:05;;;;;;;26.70;9.02;;;14.50;99.90;;;;;;2081732;28;20021;-72
2021/09/01 02:10:08;;;;;;;27.88;9.00;;;14.50;99.90;;;;;;2073369;28;20486;-72
2021/09/01 02:11:08;;;;;;;30.13;9.30;;;14.50;99.90;;;;;;2074674;28;20738;-73
2021/09/01 02:12:09;;;;;;;23.33;8.70;;;14.40;99.90;;;;;;2081065;28;20037;-72
2021/09/01 02:13:10;;;;;;;28.52;8.57;;;14.40;99.90;;;;;;2080873;28;20120;-73
2021/09/01 02:14:11;;;;;;;26.40;9.00;;;14.40;99.90;;;;;;2080991;28;20029;-73
2021/09/01 02:15:12;;;;;;;33.22;9.95;;;14.40;99.90;;;;;;2084365;28;20048;-73
2021/09/01 02:16:12;;;;;;;26.25;8.38;;;14.30;99.90;;;;;;2080087;28;20044;-72
2021/09/01 02:17:13;;;;;;;32.78;10.25;;;14.30;99.90;;;;;;2077935;28;20471;-73
2021/09/01 02:18:14;;;;;;;35.60;9.25;;;14.30;99.90;;;;;;2083946;28;20563;-73
2021/09/01 02:19:14;;;;;;;29.85;9.55;;;14.20;99.90;;;;;;2090011;28;20025;-72
2021/09/01 02:20:16;;;;;;;25.75;8.60;;;14.20;99.90;;;;;;2081844;28;20056;-73
2021/09/01 02:21:17;;;;;;;26.42;9.25;;;14.20;99.90;;;;;;2073332;28;20026;-74
2021/09/01 02:22:18;;;;;;;28.40;9.52;;;14.20;99.90;;;;;;2076549;28;20030;-73
2021/09/01 02:23:19;;;;;;;29.13;9.38;;;14.20;99.90;;;;;;2073834;28;20025;-74
2021/09/01 02:24:19;;;;;;;26.60;8.88;;;14.20;99.90;;;;;;2077028;28;20490;-73
2021/09/01 02:25:20;;;;;;;24.42;8.95;;;14.20;99.90;;;;;;2075220;28;20018;-73
2021/09/01 02:26:21;;;;;;;43.38;9.90;;;14.20;99.90;;;;;;2081157;28;20026;-73
2021/09/01 02:27:21;;;;;;;26.17;8.65;;;14.10;99.90;;;;;;2081020;28;20053;-73
2021/09/01 02:28:22;;;;;;;30.25;10.18;;;14.10;99.90;;;;;;2081735;28;20026;-73
2021/09/01 02:29:23;;;;;;;32.40;8.98;;;14.10;99.90;;;;;;2080721;28;20026;-73
2021/09/01 02:30:24;;;;;;;24.95;9.02;;;14.10;99.90;;;;;;2086040;28;20092;-73
2021/09/01 02:31:24;;;;;;;29.67;9.68;;;14.00;99.90;;;;;;2085715;28;20523;-73
2021/09/01 02:32:25;;;;;;;24.55;9.32;;;14.00;99.90;;;;;;2083808;28;20481;-73
2021/09/01 02:33:26;;;;;;;26.73;8.57;;;14.00;99.90;;;;;;2081000;28;20428;-73
2021/09/01 02:34:26;;;;;;;25.98;8.52;;;14.00;99.90;;;;;;2074308;28;20445;-73
2021/09/01 02:35:27;;;;;;;27.30;8.95;;;14.00;99.90;;;;;;2073642;28;20025;-72
2021/09/01 02:36:29;;;;;;;28.20;9.27;;;14.00;99.90;;;;;;2081377;28;20489;-73
2021/09/01 02:37:30;;;;;;;30.88;9.38;;;14.00;99.90;;;;;;2078334;28;20402;-73
2021/09/01 02:38:31;;;;;;;31.30;8.77;;;13.90;99.90;;;;;;2089126;28;20021;-73
2021/09/01 02:39:32;;;;;;;44.65;9.55;;;13.90;99.90;;;;;;2086381;28;20021;-73
2021/09/01 02:40:32;;;;;;;22.40;8.82;;;13.90;99.90;;;;;;2089276;28;20021;-73
2021/09/01 02:41:33;;;;;;;36.97;8.77;;;13.90;99.90;;;;;;2080312;28;20497;-74
2021/09/01 02:42:34;;;;;;;32.97;9.38;;;13.90;99.90;;;;;;2077307;28;20033;-73
2021/09/01 02:43:34;;;;;;;23.45;8.57;;;13.90;99.90;;;;;;2089335;28;20052;-73
2021/09/01 02:44:36;;;;;;;25.80;9.25;;;13.90;99.90;;;;;;2081684;28;20632;-73
2021/09/01 02:45:37;;;;;;;25.98;9.15;;;13.80;99.90;;;;;;2081267;28;20393;-72
2021/09/01 02:46:37;;;;;;;24.63;8.35;;;13.80;99.90;;;;;;2073530;28;20054;-73
2021/09/01 02:47:38;;;;;;;27.83;9.43;;;13.80;99.90;;;;;;2079918;28;20519;-73
2021/09/01 02:48:39;;;;;;;30.55;9.60;;;13.80;99.90;;;;;;2085219;28;20029;-73
2021/09/01 02:49:39;;;;;;;30.25;8.93;;;13.70;99.90;;;;;;2080907;28;20018;-72
2021/09/01 02:50:40;;;;;;;29.13;8.32;;;13.70;99.90;;;;;;2081568;28;20032;-72
2021/09/01 02:51:41;;;;;;;29.60;9.45;;;13.70;99.90;;;;;;2073525;28;20026;-73
2021/09/01 02:52:42;;;;;;;32.33;9.13;;;13.70;99.90;;;;;;2083000;28;20032;-73
2021/09/01 02:53:43;;;;;;;30.05;9.40;;;13.70;99.90;;;;;;2093545;28;20024;-72
2021/09/01 02:54:44;;;;;;;26.88;9.70;;;13.70;99.90;;;;;;2081067;28;20065;-71
2021/09/01 02:55:44;;;;;;;27.08;8.48;;;13.70;99.90;;;;;;2080950;28;20030;-72
2021/09/01 02:56:46;;;;;;;26.30;9.02;;;13.70;99.90;;;;;;2073127;28;20098;-73
2021/09/01 02:57:46;;;;;;;29.40;9.50;;;13.70;99.90;;;;;;2075447;28;20014;-73
2021/09/01 02:58:47;;;;;;;32.38;9.13;;;13.60;99.90;;;;;;2081516;28;20029;-73
2021/09/01 02:59:48;;;;;;;32.50;9.48;;;13.60;99.90;;;;;;2076125;28;20026;-73
2021/09/01 03:00:48;;;;;;;26.50;8.50;;;13.60;99.90;;;;;;2073406;28;20050;-72
2021/09/01 03:01:49;;;;;;;33.65;9.50;;;13.60;99.90;;;;;;2076593;28;20127;-73
2021/09/01 03:02:49;;;;;;;27.30;8.70;;;13.60;99.90;;;;;;2083045;28;20085;-72
2021/09/01 03:03:50;;;;;;;26.10;9.32;;;13.60;99.90;;;;;;2081279;28;20026;-73
2021/09/01 03:04:51;;;;;;;32.65;9.27;;;13.50;99.90;;;;;;2081243;28;20025;-72
2021/09/01 03:05:51;;;;;;;30.98;9.07;;;13.60;99.90;;;;;;2080809;28;20517;-72
2021/09/01 03:06:52;;;;;;;28.98;9.10;;;13.60;99.90;;;;;;2072440;28;20026;-72
2021/09/01 03:07:53;;;;;;;31.90;10.32;;;13.60;99.90;;;;;;2078931;28;20037;-72
2021/09/01 03:08:53;;;;;;;23.48;9.18;;;13.50;99.90;;;;;;2078324;28;20025;-74
2021/09/01 03:09:54;;;;;;;28.52;9.88;;;13.60;99.90;;;;;;2080899;28;20564;-72
2021/09/01 03:10:55;;;;;;;30.02;10.00;;;13.60;99.90;;;;;;2079772;28;20025;-73
2021/09/01 03:11:55;;;;;;;29.27;9.68;;;13.50;99.90;;;;;;2083747;28;20036;-73
2021/09/01 03:12:56;;;;;;;31.67;9.82;;;13.50;99.90;;;;;;2083928;28;20030;-72
2021/09/01 03:13:57;;;;;;;26.58;10.07;;;13.50;99.90;;;;;;2073329;28;20026;-72
2021/09/01 03:14:57;;;;;;;21.98;8.73;;;13.50;99.90;;;;;;2076121;28;20082;-73
2021/09/01 03:15:58;;;;;;;20.25;8.52;;;13.50;99.90;;;;;;2080831;28;20057;-71
2021/09/01 03:16:59;;;;;;;25.55;9.30;;;13.50;99.90;;;;;;2081270;28;20053;-72
2021/09/01 03:18:00;;;;;;;38.58;10.07;;;13.50;99.90;;;;;;2079624;28;20612;-73
2021/09/01 03:19:00;;;;;;;26.85;8.98;;;13.50;99.90;;;;;;2080294;28;20029;-72
2021/09/01 03:20:01;;;;;;;29.33;9.25;;;13.50;99.90;;;;;;2080538;28;20541;-72
2021/09/01 03:21:01;;;;;;;27.55;9.10;;;13.40;99.90;;;;;;2073351;28;20486;-73
2021/09/01 03:22:03;;;;;;;28.25;9.52;;;13.50;99.90;;;;;;2080384;28;20525;-73
2021/09/01 03:23:04;;;;;;;29.83;8.90;;;13.40;99.90;;;;;;2072717;28;20026;-72
2021/09/01 03:24:05;;;;;;;25.27;9.23;;;13.40;99.90;;;;;;2072521;28;20037;-72
2021/09/01 03:25:06;;;;;;;30.60;9.68;;;13.40;99.90;;;;;;2079042;28;22447;-72
2021/09/01 03:26:06;;;;;;;28.48;9.43;;;13.40;99.90;;;;;;2084118;28;20017;-73
2021/09/01 03:27:07;;;;;;;25.13;8.50;;;13.40;99.90;;;;;;2070720;28;20665;-72
2021/09/01 03:28:08;;;;;;;26.67;8.65;;;13.40;99.90;;;;;;2071928;28;20055;-72
2021/09/01 03:29:08;;;;;;;20.77;8.68;;;13.40;99.90;;;;;;2085363;28;20021;-71
2021/09/01 03:30:10;;;;;;;24.80;8.95;;;13.40;99.90;;;;;;2089562;28;20021;-72
2021/09/01 03:31:10;;;;;;;27.33;8.60;;;13.40;99.90;;;;;;2073490;28;20088;-73
2021/09/01 03:32:11;;;;;;;41.47;9.60;;;13.30;99.90;;;;;;2073932;28;20026;-72
2021/09/01 03:33:12;;;;;;;28.10;9.30;;;13.30;99.90;;;;;;2073194;28;20025;-72
2021/09/01 03:34:12;;;;;;;28.73;9.05;;;13.30;99.90;;;;;;2073817;28;20797;-72
2021/09/01 03:35:13;;;;;;;26.10;9.57;;;13.30;99.90;;;;;;2072088;28;20026;-71
2021/09/01 03:36:14;;;;;;;26.60;9.80;;;13.30;99.90;;;;;;2073864;28;20580;-71
2021/09/01 03:37:14;;;;;;;31.40;9.52;;;13.30;99.90;;;;;;2074355;28;20037;-72
2021/09/01 03:38:15;;;;;;;34.13;10.27;;;13.30;99.90;;;;;;2079950;28;20095;-72
2021/09/01 03:39:16;;;;;;;25.98;9.73;;;13.30;99.90;;;;;;2076932;28;20077;-71
2021/09/01 03:40:17;;;;;;;30.40;9.27;;;13.30;99.90;;;;;;2073196;28;20718;-71
2021/09/01 03:41:17;;;;;;;30.02;8.35;;;13.30;99.90;;;;;;2072831;28;20022;-71
2021/09/01 03:42:18;;;;;;;24.45;9.25;;;13.20;99.90;;;;;;2075205;28;20375;-71
2021/09/01 03:43:19;;;;;;;23.67;8.73;;;13.20;99.90;;;;;;2078974;28;20080;-72
2021/09/01 03:44:20;;;;;;;33.03;8.65;;;13.20;99.90;;;;;;2079199;28;20017;-71
2021/09/01 03:45:20;;;;;;;29.98;9.55;;;13.20;99.90;;;;;;2080580;28;20520;-72
2021/09/01 03:46:21;;;;;;;23.20;8.68;;;13.20;99.90;;;;;;2080320;28;20022;-72
2021/09/01 03:47:22;;;;;;;23.67;8.30;;;13.20;99.90;;;;;;2078280;28;20071;-72
2021/09/01 03:48:22;;;;;;;21.48;8.75;;;13.30;99.90;;;;;;2072854;28;20591;-71
2021/09/01 03:49:23;;;;;;;22.67;8.77;;;13.30;99.90;;;;;;2072255;28;20037;-71
2021/09/01 03:50:24;;;;;;;27.88;9.07;;;13.30;99.90;;;;;;2082150;28;20056;-73
2021/09/01 03:51:25;;;;;;;31.17;9.32;;;13.20;99.90;;;;;;2076307;28;20032;-71
2021/09/01 03:52:26;;;;;;;27.25;9.82;;;13.20;99.90;;;;;;2075211;28;20021;-72
2021/09/01 03:53:26;;;;;;;29.20;9.10;;;13.20;99.90;;;;;;2082786;28;20390;-71
2021/09/01 03:54:30;;;;;;;27.42;9.73;;;13.20;99.90;;;;;;2078821;28;20382;-72
2021/09/01 03:55:30;;;;;;;26.05;8.85;;;13.20;99.90;;;;;;2081053;28;20548;-71
2021/09/01 03:56:31;;;;;;;33.47;9.43;;;13.20;99.90;;;;;;2080332;28;20021;-71
2021/09/01 03:57:32;;;;;;;30.80;9.35;;;13.20;99.90;;;;;;2081412;28;20056;-70
2021/09/01 03:58:32;;;;;;;31.20;9.02;;;13.20;99.90;;;;;;2073956;28;20025;-72
2021/09/01 03:59:33;;;;;;;31.70;9.55;;;13.20;99.90;;;;;;2075931;28;20553;-72
2021/09/01 04:00:34;;;;;;;28.73;8.98;;;13.20;99.90;;;;;;2075022;28;20022;-73
2021/09/01 04:01:35;;;;;;;26.58;8.82;;;13.20;99.90;;;;;;2075616;28;20514;-74
2021/09/01 04:02:36;;;;;;;24.60;9.13;;;13.20;99.90;;;;;;2079407;28;20056;-71
2021/09/01 04:03:37;;;;;;;28.23;9.07;;;13.20;99.90;;;;;;2080208;28;20025;-71
2021/09/01 04:04:37;;;;;;;21.75;8.82;;;13.20;99.90;;;;;;2073525;28;20074;-70
2021/09/01 04:05:38;;;;;;;25.95;9.18;;;13.30;99.90;;;;;;2081927;28;20021;-72
2021/09/01 04:06:38;;;;;;;28.08;8.85;;;13.30;99.90;;;;;;2078322;28;20037;-72
2021/09/01 04:07:39;;;;;;;25.45;9.40;;;13.30;99.90;;;;;;2075375;28;20675;-73
2021/09/01 04:08:40;;;;;;;25.45;8.85;;;13.30;99.90;;;;;;2081908;28;20023;-70
2021/09/01 04:09:40;;;;;;;24.58;8.77;;;13.30;99.90;;;;;;2080220;28;20072;-71
2021/09/01 04:10:41;;;;;;;23.83;8.82;;;13.30;99.90;;;;;;2076965;28;20069;-71
2021/09/01 04:11:42;;;;;;;23.27;8.35;;;13.30;99.90;;;;;;2079635;28;20034;-72
2021/09/01 04:12:42;;;;;;;26.70;9.13;;;13.30;99.90;;;;;;2073657;28;20096;-73
2021/09/01 04:13:43;;;;;;;30.52;10.02;;;13.30;99.90;;;;;;2081490;28;20029;-71
2021/09/01 04:14:44;;;;;;;31.10;10.40;;;13.30;99.90;;;;;;2082046;28;20020;-72
2021/09/01 04:15:44;;;;;;;25.52;9.30;;;13.20;99.90;;;;;;2074455;28;20033;-73
2021/09/01 04:16:45;;;;;;;26.70;8.95;;;13.20;99.90;;;;;;2077236;28;20026;-72
2021/09/01 04:17:46;;;;;;;25.90;9.63;;;13.20;99.90;;;;;;2082567;28;20021;-72
2021/09/01 04:18:47;;;;;;;29.67;9.25;;;13.20;99.90;;;;;;2082556;28;20052;-71
2021/09/01 04:19:48;;;;;;;28.02;9.55;;;13.20;99.90;;;;;;2080621;28;20017;-72
2021/09/01 04:20:49;;;;;;;24.60;9.88;;;13.20;99.90;;;;;;2081801;28;20075;-71
2021/09/01 04:21:49;;;;;;;26.73;9.30;;;13.20;99.90;;;;;;2078249;28;20105;-71
2021/09/01 04:22:50;;;;;;;33.72;10.10;;;13.30;99.90;;;;;;2081921;28;20467;-72
2021/09/01 04:23:51;;;;;;;25.00;9.30;;;13.20;99.90;;;;;;2081600;28;20536;-71
2021/09/01 04:24:51;;;;;;;20.48;8.90;;;13.20;99.90;;;;;;2082532;28;20026;-73
2021/09/01 04:25:52;;;;;;;31.50;10.23;;;13.20;99.90;;;;;;2081677;28;20017;-71
2021/09/01 04:26:53;;;;;;;22.40;9.60;;;13.20;99.90;;;;;;2073572;28;20018;-72
2021/09/01 04:27:54;;;;;;;26.70;10.20;;;13.20;99.90;;;;;;2080339;28;20021;-72
2021/09/01 04:28:54;;;;;;;28.25;11.05;;;13.20;99.90;;;;;;2078411;28;20034;-72
2021/09/01 04:29:55;;;;;;;25.80;9.48;;;13.20;99.90;;;;;;2083616;28;20026;-72
2021/09/01 04:30:56;;;;;;;23.67;10.55;;;13.30;99.90;;;;;;2084292;28;20034;-72
2021/09/01 04:31:56;;;;;;;23.33;9.95;;;13.30;99.90;;;;;;2080579;28;20688;-70
2021/09/01 04:32:57;;;;;;;34.13;11.60;;;13.30;99.90;;;;;;2078741;28;20030;-71
2021/09/01 04:33:58;;;;;;;23.00;11.15;;;13.30;99.90;;;;;;2075130;28;20068;-71
2021/09/01 04:34:58;;;;;;;30.13;10.98;;;13.30;99.90;;;;;;2074076;28;20087;-73
2021/09/01 04:35:59;;;;;;;26.75;11.07;;;13.30;99.90;;;;;;2079923;28;20053;-71
2021/09/01 04:37:00;;;;;;;24.67;10.82;;;13.30;99.90;;;;;;2075182;28;20104;-70
2021/09/01 04:38:01;;;;;;;24.48;11.02;;;13.30;99.90;;;;;;2081869;28;20057;-71
2021/09/01 04:39:01;;;;;;;32.22;12.43;;;13.30;99.90;;;;;;2081483;28;20485;-73
2021/09/01 04:40:02;;;;;;;24.90;12.27;;;13.30;99.90;;;;;;2078862;28;20021;-72
2021/09/01 04:41:03;;;;;;;32.22;12.18;;;13.30;99.90;;;;;;2071422;28;20449;-71
2021/09/01 04:42:04;;;;;;;26.77;12.48;;;13.30;99.90;;;;;;2073191;28;20038;-72
2021/09/01 04:43:05;;;;;;;26.30;13.32;;;13.30;99.90;;;;;;2074410;28;20022;-71
2021/09/01 04:44:06;;;;;;;28.55;12.95;;;13.30;99.90;;;;;;2079474;28;20060;-71
2021/09/01 04:45:07;;;;;;;28.10;14.00;;;13.30;99.90;;;;;;2087697;28;20028;-70
2021/09/01 04:46:07;;;;;;;34.90;13.18;;;13.40;99.90;;;;;;2083098;28;20033;-71
2021/09/01 04:47:08;;;;;;;25.90;13.23;;;13.30;99.90;;;;;;2081446;28;20409;-74
2021/09/01 04:48:09;;;;;;;26.00;13.98;;;13.30;99.90;;;;;;2081847;28;20413;-74
2021/09/01 04:49:09;;;;;;;33.85;15.07;;;13.40;99.90;;;;;;2073444;28;20076;-72
2021/09/01 04:50:11;;;;;;;26.77;13.65;;;13.40;99.90;;;;;;2081982;28;20053;-72
2021/09/01 04:51:12;;;;;;;29.05;13.55;;;13.40;99.90;;;;;;2081719;28;20389;-71
2021/09/01 04:52:12;;;;;;;32.13;14.70;;;13.40;99.90;;;;;;2081388;28;20034;-72
2021/09/01 04:53:13;;;;;;;34.80;15.10;;;13.50;99.90;;;;;;2073381;28;20073;-72
2021/09/01 04:54:14;;;;;;;27.02;14.80;;;13.50;99.90;;;;;;2077489;28;20116;-72
2021/09/01 04:55:17;;;;;;;28.77;14.15;;;13.50;99.90;;;;;;2082306;28;20021;-71
2021/09/01 04:56:17;;;;;;;33.53;15.88;;;13.40;99.90;;;;;;2080116;28;20022;-72
2021/09/01 04:57:18;;;;;;;30.23;15.57;;;13.50;99.90;;;;;;2087352;28;20048;-71
2021/09/01 04:58:19;;;;;;;28.67;15.57;;;13.40;99.90;;;;;;2082407;28;20100;-72
2021/09/01 04:59:19;;;;;;;36.30;15.80;;;13.50;99.90;;;;;;2080255;28;20034;-71
2021/09/01 05:00:20;;;;;;;33.10;15.80;;;13.50;99.90;;;;;;2076325;28;20033;-72
2021/09/01 05:01:21;;;;;;;30.33;15.93;;;13.50;99.90;;;;;;2075244;28;20076;-72
2021/09/01 05:02:22;;;;;;;28.10;15.60;;;13.50;99.90;;;;;;2079513;28;20033;-72
2021/09/01 05:03:23;;;;;;;29.23;16.05;;;13.50;99.90;;;;;;2074077;28;20022;-71
2021/09/01 05:04:23;;;;;;;34.10;16.33;;;13.50;99.90;;;;;;2078466;28;20108;-72
2021/09/01 05:05:24;;;;;;;32.80;16.95;;;13.50;99.90;;;;;;2081706;28;20107;-73
2021/09/01 05:06:27;;;;;;;34.50;17.17;;;13.60;99.90;;;;;;2079833;28;20021;-72
2021/09/01 05:07:27;;;;;;;32.80;16.80;;;13.60;99.90;;;;;;2082236;28;20031;-71
2021/09/01 05:08:28;;;;;;;32.22;18.08;;;13.60;99.90;;;;;;2082030;28;20025;-72
2021/09/01 05:09:29;;;;;;;38.85;17.52;;;13.60;99.90;;;;;;2079374;28;20068;-73
2021/09/01 05:10:31;;;;;;;29.23;16.92;;;13.60;99.90;;;;;;2074104;28;20018;-72
2021/09/01 05:11:31;;;;;;;;;;;13.60;99.90;;;;;;2078596;28;20021;-72
2021/09/01 05:12:32;;;;;;;35.60;18.02;;;13.60;99.90;;;;;;2089067;28;20602;-71
2021/09/01 05:13:35;;;;;;;36.15;17.98;;;13.60;99.90;;;;;;2074970;28;20042;-71